Time;durP1;ratioP1;P1;durP2;ratioP2;P2;SDS_P1;SDS_P2;PMS_P1;PMS_P2;Temp;Humidity;BMP_temperature;BMP_pressure;BME280_temperature;BME280_humidity;BME280_pressure;Samples;Min_cycle;Max_cycle;Signal;HPM_P1;HPM_P2
2022/09/08 00:01:15;;;;;;;;;;;;;;;16.71;100.00;100870.31;5324163;27;19924;-79
2022/09/08 00:03:46;;;;;;;;;;;;;;;16.68;100.00;100863.41;5321579;27;19973;-79
2022/09/08 00:06:18;;;;;;;;;;;;;;;16.63;100.00;100869.31;5318302;27;19924;-80
2022/09/08 00:08:51;;;;;;;;;;;;;;;16.61;100.00;100871.38;5323192;27;19973;-79
2022/09/08 00:11:23;;;;;;;;;;;;;;;16.48;100.00;100870.28;5323367;27;20455;-79
2022/09/08 00:13:56;;;;;;;;;;;;;;;16.33;100.00;100871.09;5323718;27;20295;-79
2022/09/08 00:16:27;;;;;;;;;;;;;;;16.18;100.00;100873.72;5320818;27;20341;-80
2022/09/08 00:18:59;;;;;;;;;;;;;;;16.17;100.00;100873.91;5322276;27;19920;-80
2022/09/08 00:21:30;;;;;;;;;;;;;;;16.06;100.00;100867.09;5321819;27;20422;-79
2022/09/08 00:24:01;;;;;;;;;;;;;;;16.01;100.00;100854.16;5322576;27;19920;-79
2022/09/08 00:26:33;;;;;;;;;;;;;;;15.95;100.00;100852.16;5320248;27;20387;-79
2022/09/08 00:29:04;;;;;;;;;;;;;;;15.91;100.00;100841.94;5322194;27;19920;-79
2022/09/08 00:31:39;;;;;;;;;;;;;;;15.86;100.00;100829.03;5321908;27;19916;-80
2022/09/08 00:34:10;;;;;;;;;;;;;;;15.87;100.00;100836.09;5352231;27;19959;-79
2022/09/08 00:36:41;;;;;;;;;;;;;;;15.90;100.00;100837.56;5320136;27;19944;-80
2022/09/08 00:39:13;;;;;;;;;;;;;;;15.93;100.00;100840.75;5324693;27;19920;-80
2022/09/08 00:41:44;;;;;;;;;;;;;;;15.92;100.00;100840.91;5320433;27;20429;-80
2022/09/08 00:44:34;;;;;;;;;;;;;;;15.93;100.00;100842.59;5320652;27;19916;-79
2022/09/08 00:47:09;;;;;;;;;;;;;;;15.88;100.00;100832.38;5319397;27;20001;-79
2022/09/08 00:49:41;;;;;;;;;;;;;;;15.84;100.00;100825.69;5322260;27;19916;-79
2022/09/08 00:52:13;;;;;;;;;;;;;;;15.87;100.00;100820.78;5317670;27;19916;-79
2022/09/08 00:54:44;;;;;;;;;;;;;;;15.84;100.00;100820.31;5318457;27;20277;-79
2022/09/08 00:57:16;;;;;;;;;;;;;;;15.81;100.00;100824.19;5319180;27;20008;-79
2022/09/08 00:59:48;;;;;;;;;;;;;;;15.83;100.00;100821.31;5319919;27;19969;-79
2022/09/08 01:02:22;;;;;;;;;;;;;;;15.80;100.00;100810.91;5321604;27;20011;-79
2022/09/08 01:04:55;;;;;;;;;;;;;;;15.83;100.00;100810.53;5317602;27;19923;-79
2022/09/08 01:13:20;;;;;;;;;;;;;;;15.81;100.00;100812.59;5316898;27;19921;-79
2022/09/08 01:15:52;;;;;;;;;;;;;;;15.76;100.00;100812.28;5320884;27;19989;-79
2022/09/08 01:18:23;;;;;;;;;;;;;;;15.76;100.00;100802.38;5320370;27;19924;-79
2022/09/08 01:21:13;;;;;;;;;;;;;;;15.74;100.00;100793.59;5321134;27;19984;-79
2022/09/08 01:23:44;;;;;;;;;;;;;;;15.72;100.00;100797.50;5317677;27;19916;-79
2022/09/08 01:26:19;;;;;;;;;;;;;;;15.74;100.00;100787.38;5318770;27;19977;-79
2022/09/08 01:29:00;;;;;;;;;;;;;;;15.73;100.00;100777.66;5319119;27;20368;-79
2022/09/08 01:31:33;;;;;;;;;;;;;;;15.74;100.00;100768.56;5352614;27;19961;-79
2022/09/08 01:34:04;;;;;;;;;;;;;;;15.72;100.00;100762.53;5317893;27;19942;-79
2022/09/08 01:36:35;;;;;;;;;;;;;;;15.73;100.00;100769.59;5318402;27;19920;-79
2022/09/08 01:39:06;;;;;;;;;;;;;;;15.72;100.00;100781.34;5319597;27;20295;-79
2022/09/08 01:41:37;;;;;;;;;;;;;;;15.72;100.00;100776.81;5316548;27;19924;-79
2022/09/08 01:44:09;;;;;;;;;;;;;;;15.68;100.00;100784.38;5316511;27;19943;-79
2022/09/08 01:46:40;;;;;;;;;;;;;;;15.68;100.00;100770.13;5320624;27;19962;-79
2022/09/08 01:49:11;;;;;;;;;;;;;;;15.70;100.00;100774.28;5319088;27;20072;-80
2022/09/08 01:51:42;;;;;;;;;;;;;;;15.67;100.00;100781.88;5317743;27;19923;-80
2022/09/08 01:54:13;;;;;;;;;;;;;;;15.65;100.00;100773.97;5318400;27;19932;-80
2022/09/08 01:56:45;;;;;;;;;;;;;;;15.70;100.00;100762.72;5325431;27;19916;-79
2022/09/08 01:59:16;;;;;;;;;;;;;;;15.72;100.00;100767.91;5322765;27;19931;-79
2022/09/08 02:01:47;;;;;;;;;;;;;;;15.71;100.00;100764.38;5321565;27;19923;-79
2022/09/08 02:04:18;;;;;;;;;;;;;;;15.70;100.00;100751.94;5318336;27;20011;-79
2022/09/08 02:06:50;;;;;;;;;;;;;;;15.70;100.00;100752.78;5318129;27;19920;-79
2022/09/08 02:09:21;;;;;;;;;;;;;;;15.69;100.00;100744.91;5319552;27;19920;-79
2022/09/08 02:11:52;;;;;;;;;;;;;;;15.68;100.00;100740.53;5320867;27;19927;-79
2022/09/08 02:14:24;;;;;;;;;;;;;;;15.65;100.00;100732.81;5321720;27;19920;-79
2022/09/08 02:16:55;;;;;;;;;;;;;;;15.63;100.00;100730.31;5319291;27;19978;-79
2022/09/08 02:19:26;;;;;;;;;;;;;;;15.63;100.00;100733.00;5317963;27;19964;-79
2022/09/08 02:21:57;;;;;;;;;;;;;;;15.60;100.00;100727.16;5318412;27;19927;-79
2022/09/08 02:24:29;;;;;;;;;;;;;;;15.60;100.00;100729.84;5318747;27;19964;-79
2022/09/08 02:27:00;;;;;;;;;;;;;;;15.62;100.00;100734.03;5319447;27;19924;-79
2022/09/08 02:29:31;;;;;;;;;;;;;;;15.63;100.00;100737.56;5315510;27;20013;-79
2022/09/08 02:32:03;;;;;;;;;;;;;;;15.65;100.00;100732.81;5318785;27;19920;-79
2022/09/08 02:34:34;;;;;;;;;;;;;;;15.65;100.00;100728.28;5317351;27;19916;-79
2022/09/08 02:37:05;;;;;;;;;;;;;;;15.64;100.00;100729.31;5317492;27;19939;-79
2022/09/08 02:39:36;;;;;;;;;;;;;;;15.61;100.00;100720.75;5315989;27;19952;-79
2022/09/08 02:42:11;;;;;;;;;;;;;;;15.55;100.00;100724.16;5318133;27;20475;-79
2022/09/08 02:44:42;;;;;;;;;;;;;;;15.52;100.00;100719.97;5317717;27;20043;-79
2022/09/08 02:47:13;;;;;;;;;;;;;;;15.52;100.00;100730.72;5319052;27;19939;-79
2022/09/08 02:49:45;;;;;;;;;;;;;;;15.46;100.00;100728.75;5318560;27;19965;-79
2022/09/08 02:52:16;;;;;;;;;;;;;;;15.44;100.00;100728.91;5315179;27;19926;-79
2022/09/08 02:54:47;;;;;;;;;;;;;;;15.51;100.00;100739.81;5318566;27;20436;-79
2022/09/08 02:57:20;;;;;;;;;;;;;;;15.50;100.00;100735.44;5319505;27;20296;-79
2022/09/08 02:59:51;;;;;;;;;;;;;;;15.43;100.00;100726.44;5320670;27;19923;-79
2022/09/08 03:02:22;;;;;;;;;;;;;;;15.41;100.00;100733.81;5318388;27;19932;-79
2022/09/08 03:04:54;;;;;;;;;;;;;;;15.40;100.00;100729.47;5318790;27;19938;-79
2022/09/08 03:07:26;;;;;;;;;;;;;;;15.37;100.00;100722.56;5319568;27;19924;-78
2022/09/08 03:09:57;;;;;;;;;;;;;;;15.33;100.00;100723.94;5319080;27;19920;-79
2022/09/08 03:12:28;;;;;;;;;;;;;;;15.30;100.00;100724.28;5321259;27;20441;-78
2022/09/08 03:14:59;;;;;;;;;;;;;;;15.29;100.00;100725.34;5313734;27;19955;-79
2022/09/08 03:17:30;;;;;;;;;;;;;;;15.25;100.00;100732.91;5319976;27;20292;-79
2022/09/08 03:20:02;;;;;;;;;;;;;;;15.30;100.00;100732.34;5322757;27;19920;-79
2022/09/08 03:22:33;;;;;;;;;;;;;;;15.30;100.00;100733.22;5323704;27;19920;-79
2022/09/08 03:25:04;;;;;;;;;;;;;;;15.29;100.00;100728.00;5320276;27;19982;-79
2022/09/08 03:27:36;;;;;;;;;;;;;;;15.27;100.00;100730.00;5316553;27;19922;-79
2022/09/08 03:30:08;;;;;;;;;;;;;;;15.27;100.00;100730.00;5321384;27;19982;-79
2022/09/08 03:32:41;;;;;;;;;;;;;;;15.29;100.00;100734.22;5318541;27;19923;-80
2022/09/08 03:35:14;;;;;;;;;;;;;;;15.27;100.00;100749.69;5319506;27;19962;-79
2022/09/08 03:37:45;;;;;;;;;;;;;;;15.24;100.00;100755.41;5321338;27;20054;-79
2022/09/08 03:40:17;;;;;;;;;;;;;;;15.19;100.00;100763.16;5320828;27;20015;-80
2022/09/08 03:42:48;;;;;;;;;;;;;;;15.21;100.00;100774.56;5324618;27;19928;-79
2022/09/08 03:45:19;;;;;;;;;;;;;;;15.18;100.00;100780.28;5320780;27;19920;-80
2022/09/08 03:47:51;;;;;;;;;;;;;;;15.21;100.00;100765.66;5320898;27;19924;-80
2022/09/08 03:50:22;;;;;;;;;;;;;;;15.11;100.00;100726.41;5316159;27;19916;-80
2022/09/08 03:52:53;;;;;;;;;;;;;;;15.16;100.00;100733.94;5320347;27;19990;-80
2022/09/08 03:55:24;;;;;;;;;;;;;;;15.12;100.00;100736.13;5326223;27;19920;-80
2022/09/08 03:57:56;;;;;;;;;;;;;;;15.06;100.00;100731.47;5322808;27;19916;-80
2022/09/08 04:00:27;;;;;;;;;;;;;;;15.05;100.00;100727.09;5320421;27;20015;-80
2022/09/08 04:02:59;;;;;;;;;;;;;;;15.00;100.00;100724.09;5319847;27;19924;-80
2022/09/08 04:05:31;;;;;;;;;;;;;;;14.97;100.00;100721.78;5319430;27;19929;-80
2022/09/08 04:08:02;;;;;;;;;;;;;;;14.98;100.00;100722.63;5319640;27;19927;-80
2022/09/08 04:10:33;;;;;;;;;;;;;;;14.97;100.00;100724.47;5320715;27;20723;-80
2022/09/08 04:13:04;;;;;;;;;;;;;;;14.93;100.00;100717.75;5319489;27;19923;-80
2022/09/08 04:15:37;;;;;;;;;;;;;;;14.96;100.00;100722.78;5323182;27;20052;-80
2022/09/08 04:18:09;;;;;;;;;;;;;;;14.94;100.00;100719.44;5321552;27;19986;-80
2022/09/08 04:20:40;;;;;;;;;;;;;;;14.93;100.00;100723.13;5319240;27;20006;-80
2022/09/08 04:23:11;;;;;;;;;;;;;;;14.96;100.00;100728.16;5322558;27;19916;-80
2022/09/08 04:25:43;;;;;;;;;;;;;;;14.96;100.00;100730.00;5320953;27;20055;-80
2022/09/08 04:28:15;;;;;;;;;;;;;;;14.93;100.00;100723.97;5321030;27;20418;-79
2022/09/08 04:30:46;;;;;;;;;;;;;;;14.99;100.00;100733.19;5320944;27;19916;-79
2022/09/08 04:33:18;;;;;;;;;;;;;;;14.98;100.00;100733.34;5320679;27;20261;-79
2022/09/08 04:35:49;;;;;;;;;;;;;;;15.00;100.00;100739.38;5321221;27;19990;-80
2022/09/08 04:38:20;;;;;;;;;;;;;;;15.03;100.00;100741.72;5319239;27;19925;-80
2022/09/08 04:40:52;;;;;;;;;;;;;;;14.96;100.00;100741.59;5316786;27;19920;-79
2022/09/08 04:43:23;;;;;;;;;;;;;;;14.97;100.00;100740.59;5320624;27;20337;-79
2022/09/08 04:45:54;;;;;;;;;;;;;;;14.96;100.00;100736.22;5320402;27;19935;-80
2022/09/08 04:48:25;;;;;;;;;;;;;;;15.00;100.00;100750.97;5321171;27;19916;-80
2022/09/08 04:50:57;;;;;;;;;;;;;;;14.97;100.00;100745.09;5321461;27;19965;-80
2022/09/08 04:53:29;;;;;;;;;;;;;;;14.99;100.00;100751.13;5317410;27;19920;-80
2022/09/08 04:56:01;;;;;;;;;;;;;;;15.02;100.00;100742.72;5318346;27;20299;-80
2022/09/08 04:58:33;;;;;;;;;;;;;;;15.02;100.00;100743.56;5321716;27;19916;-80
2022/09/08 05:01:09;;;;;;;;;;;;;;;15.02;100.00;100746.25;5319607;27;20060;-79
2022/09/08 05:03:40;;;;;;;;;;;;;;;15.09;100.00;100752.63;5317405;27;19920;-79
2022/09/08 05:06:15;;;;;;;;;;;;;;;15.08;100.00;100755.47;5318360;27;20295;-80
2022/09/08 05:08:48;;;;;;;;;;;;;;;15.05;100.00;100753.97;5323428;27;19916;-79
2022/09/08 05:11:20;;;;;;;;;;;;;;;15.05;100.00;100751.28;5324711;27;19920;-79
2022/09/08 05:13:51;;;;;;;;;;;;;;;15.07;100.00;100751.09;5322354;27;19985;-80
2022/09/08 05:16:24;;;;;;;;;;;;;;;15.07;100.00;100762.69;5323056;27;20398;-79
2022/09/08 05:18:58;;;;;;;;;;;;;;;15.09;100.00;100759.81;5323713;27;20466;-79
2022/09/08 05:21:30;;;;;;;;;;;;;;;15.13;100.00;100758.47;5320709;27;19977;-80
2022/09/08 05:24:03;;;;;;;;;;;;;;;15.18;100.00;100763.31;5320290;27;20006;-80
2022/09/08 05:26:34;;;;;;;;;;;;;;;15.17;100.00;100762.50;5319113;27;19920;-80
2022/09/08 05:29:06;;;;;;;;;;;;;;;15.19;100.00;100765.84;5319434;27;19923;-80
2022/09/08 05:31:37;;;;;;;;;;;;;;;15.21;100.00;100766.50;5321436;27;19927;-80
2022/09/08 05:34:08;;;;;;;;;;;;;;;15.26;100.00;100755.22;5319987;27;20018;-81
2022/09/08 05:36:40;;;;;;;;;;;;;;;15.26;100.00;100761.44;5327073;27;19925;-81
2022/09/08 05:39:11;;;;;;;;;;;;;;;15.26;100.00;100750.69;5321534;27;19924;-82
2022/09/08 05:41:42;;;;;;;;;;;;;;;15.28;100.00;100758.56;5323597;27;19924;-82
2022/09/08 05:44:14;;;;;;;;;;;;;;;15.34;100.00;100759.72;5320989;27;19924;-81
2022/09/08 05:46:45;;;;;;;;;;;;;;;15.39;100.00;100760.03;5318906;27;19920;-81
2022/09/08 05:49:16;;;;;;;;;;;;;;;15.40;100.00;100753.66;5324361;27;19924;-81
2022/09/08 05:51:50;;;;;;;;;;;;;;;15.41;100.00;100760.69;5322526;27;19939;-81
2022/09/08 05:54:21;;;;;;;;;;;;;;;15.35;100.00;100754.16;5327280;27;20569;-81
2022/09/08 05:56:53;;;;;;;;;;;;;;;15.36;100.00;100761.22;5322777;27;19924;-81
2022/09/08 05:59:24;;;;;;;;;;;;;;;15.31;100.00;100756.38;5322862;27;20023;-81
2022/09/08 06:01:55;;;;;;;;;;;;;;;15.33;100.00;100756.19;5323241;27;20013;-81
2022/09/08 06:04:26;;;;;;;;;;;;;;;15.36;100.00;100760.38;5327091;27;19975;-80
2022/09/08 06:06:58;;;;;;;;;;;;;;;15.34;100.00;100754.34;5323385;27;19946;-81
2022/09/08 06:09:29;;;;;;;;;;;;;;;15.34;100.00;100767.78;5323445;27;19920;-80
2022/09/08 06:12:00;;;;;;;;;;;;;;;15.34;100.00;100768.63;5320437;27;19924;-80
2022/09/08 06:14:33;;;;;;;;;;;;;;;15.35;100.00;100772.16;5317879;27;19959;-80
2022/09/08 06:17:06;;;;;;;;;;;;;;;15.35;100.00;100770.28;5325676;27;19919;-81
2022/09/08 06:19:37;;;;;;;;;;;;;;;15.33;100.00;100766.94;5326396;27;19966;-81
2022/09/08 06:22:08;;;;;;;;;;;;;;;15.37;100.00;100767.44;5341975;27;20380;-81
2022/09/08 06:24:40;;;;;;;;;;;;;;;15.37;100.00;100765.56;5326422;27;19912;-81
2022/09/08 06:27:34;;;;;;;;;;;;;;;15.33;100.00;100758.88;5325994;27;19928;-81
2022/09/08 06:30:13;;;;;;;;;;;;;;;15.36;100.00;100757.69;5318633;27;19915;-80
2022/09/08 06:33:07;;;;;;;;;;;;;;;15.44;100.00;100763.84;5325798;27;19978;-80
2022/09/08 06:35:43;;;;;;;;;;;;;;;15.51;100.00;100772.06;5333663;27;19916;-80
2022/09/08 06:38:22;;;;;;;;;;;;;;;15.44;100.00;100771.91;5326123;27;19916;-80
2022/09/08 06:40:59;;;;;;;;;;;;;;;15.50;100.00;100773.91;5326222;27;19916;-80
2022/09/08 06:43:46;;;;;;;;;;;;;;;15.57;100.00;100776.75;5325404;27;19927;-80
2022/09/08 06:46:22;;;;;;;;;;;;;;;15.62;100.00;100774.34;5324580;28;20299;-80
2022/09/08 06:48:54;;;;;;;;;;;;;;;15.63;100.00;100780.56;5323701;27;19955;-80
2022/09/08 06:51:36;;;;;;;;;;;;;;;15.63;100.00;100777.88;5317985;27;19928;-80
2022/09/08 06:54:26;;;;;;;;;;;;;;;15.59;100.00;100785.47;5307561;28;19927;-81
2022/09/08 06:56:58;;;;;;;;;;;;;;;15.57;100.00;100779.44;5308372;28;19916;-80
2022/09/08 06:59:48;;;;;;;;;;;;;;;15.58;100.00;100786.47;5341068;27;19919;-80
2022/09/08 07:02:37;;;;;;;;;;;;;;;15.63;100.00;100786.78;5307691;28;20016;-80
2022/09/08 07:05:11;;;;;;;;;;;;;;;15.65;100.00;100779.34;5319371;27;20009;-80
2022/09/08 07:07:42;;;;;;;;;;;;;;;15.71;100.00;100780.53;5329013;27;19912;-80
2022/09/08 07:10:16;;;;;;;;;;;;;;;15.75;100.00;100781.03;5329187;27;19923;-80
2022/09/08 07:12:59;;;;;;;;;;;;;;;15.70;100.00;100786.91;5329791;27;20006;-80
2022/09/08 07:15:36;;;;;;;;;;;;;;;15.68;100.00;100778.19;5329038;27;19912;-80
2022/09/08 07:18:23;;;;;;;;;;;;;;;15.70;100.00;100784.22;5329350;27;20318;-80
2022/09/08 07:21:03;;;;;;;;;;;;;;;15.74;100.00;100779.31;5328550;27;19973;-80
2022/09/08 07:23:37;;;;;;;;;;;;;;;15.75;100.00;100787.25;5329086;27;19912;-80
2022/09/08 07:26:14;;;;;;;;;;;;;;;15.74;100.00;100782.84;5329146;27;19920;-80
2022/09/08 07:28:48;;;;;;;;;;;;;;;15.80;100.00;100775.97;5327444;28;20265;-80
2022/09/08 07:31:21;;;;;;;;;;;;;;;15.82;100.00;100782.81;5328418;27;19938;-80
2022/09/08 07:33:57;;;;;;;;;;;;;;;15.93;100.00;100784.25;5328106;27;20007;-80
2022/09/08 07:36:46;;;;;;;;;;;;;;;16.55;100.00;100791.34;5314732;27;20357;-79
2022/09/08 07:39:22;;;;;;;;;;;;;;;16.97;100.00;100791.75;5307229;28;20388;-80
2022/09/08 07:41:54;;;;;;;;;;;;;;;17.12;100.00;100786.38;5306516;28;19928;-80
2022/09/08 07:44:25;;;;;;;;;;;;;;;17.04;100.00;100789.16;5308011;28;19923;-80
2022/09/08 07:47:15;;;;;;;;;;;;;;;17.32;100.00;100781.22;5340580;27;20608;-79
2022/09/08 07:49:52;;;;;;;;;;;;;;;17.41;100.00;100781.97;5325437;27;19951;-79
2022/09/08 07:52:36;;;;;;;;;;;;;;;17.36;100.00;100785.25;5328437;27;19919;-80
2022/09/08 07:55:19;;;;;;;;;;;;;;;17.74;100.00;100785.03;5328149;27;19912;-79
2022/09/08 07:57:59;;;;;;;;;;;;;;;18.37;100.00;100792.53;5328304;27;19920;-79
2022/09/08 08:00:41;;;;;;;;;;;;;;;18.44;100.00;100802.38;5328259;27;19912;-79
2022/09/08 08:03:18;;;;;;;;;;;;;;;18.39;100.00;100803.97;5326246;27;20265;-79
2022/09/08 08:06:07;;;;;;;;;;;;;;;18.21;100.00;100794.47;5315620;27;20360;-79
2022/09/08 08:08:54;;;;;;;;;;;;;;;19.35;100.00;100793.38;5324525;27;19965;-79
2022/09/08 08:11:31;;;;;;;;;;;;;;;19.70;100.00;100801.41;5330200;27;19916;-78
2022/09/08 08:14:02;;;;;;;;;;;;;;;19.39;100.00;100786.56;5328396;27;19912;-78
2022/09/08 08:16:43;;;;;;;;;;;;;;;19.53;100.00;100783.88;5328416;27;19912;-78
2022/09/08 08:19:33;;;;;;;;;;;;;;;20.32;100.00;100785.94;5328093;27;19916;-79
2022/09/08 08:22:05;;;;;;;;;;;;;;;21.07;100.00;100785.66;5343674;27;19920;-79
2022/09/08 08:24:42;;;;;;;;;;;;;;;21.68;100.00;100786.25;5323875;27;19918;-79
2022/09/08 08:27:27;;;;;;;;;;;;;;;22.05;100.00;100779.16;5307019;28;19963;-79
2022/09/08 08:30:02;;;;;;;;;;;;;;;22.78;100.00;100787.75;5306436;28;20007;-79
2022/09/08 08:32:38;;;;;;;;;;;;;;;22.08;100.00;100773.25;5306469;28;19920;-79
2022/09/08 08:35:17;;;;;;;;;;;;;;;21.57;100.00;100776.09;5304769;28;19935;-79
2022/09/08 08:37:50;;;;;;;;;;;;;;;21.50;100.00;100776.13;5326753;27;19938;-79
2022/09/08 08:40:27;;;;;;;;;;;;;;;22.23;100.00;100769.38;5327809;27;19979;-79
2022/09/08 08:43:05;;;;;;;;;;;;;;;23.36;100.00;100770.97;5326987;27;19924;-79
2022/09/08 08:45:39;;;;;;;;;;;;;;;23.64;100.00;100766.03;5327514;27;20291;-79
2022/09/08 08:48:16;;;;;;;;;;;;;;;24.69;100.00;100764.59;5326322;27;19920;-80
2022/09/08 08:51:12;;;;;;;;;;;;;;;24.43;100.00;100765.88;5327468;27;19916;-79
2022/09/08 08:53:43;;;;;;;;;;;;;;;22.90;100.00;100772.34;5327064;27;19916;-80
2022/09/08 08:56:19;;;;;;;;;;;;;;;22.17;100.00;100770.28;5327599;27;20011;-79
2022/09/08 08:58:50;;;;;;;;;;;;;;;22.63;100.00;100772.63;5327294;27;19916;-79
2022/09/08 09:01:21;;;;;;;;;;;;;;;22.60;100.00;100770.34;5327431;27;20015;-79
2022/09/08 09:03:53;;;;;;;;;;;;;;;22.21;100.00;100766.91;5321648;28;19936;-79
2022/09/08 09:06:24;;;;;;;;;;;;;;;21.53;100.00;100771.09;5305399;28;19925;-79
2022/09/08 09:09:10;;;;;;;;;;;;;;;22.77;100.00;100767.03;5324900;27;19922;-79
2022/09/08 09:11:50;;;;;;;;;;;;;;;23.91;100.00;100766.47;5326986;27;20330;-80
2022/09/08 09:14:40;;;;;;;;;;;;;;;24.05;100.00;100767.09;5326381;27;20007;-79
2022/09/08 09:17:18;;;;;;;;;;;;;;;24.55;100.00;100761.28;5324524;28;19913;-79
2022/09/08 09:20:08;;;;;;;;;;;;;;;25.67;100.00;100765.53;5326975;27;19923;-80
2022/09/08 09:22:51;;;;;;;;;;;;;;;26.58;100.00;100745.47;5326238;27;19959;-80
2022/09/08 09:25:28;;;;;;;;;;;;;;;27.35;100.00;100762.94;5327091;27;19935;-80
2022/09/08 09:28:22;;;;;;;;;;;;;;;27.43;100.00;100755.34;5326719;27;19912;-78
2022/09/08 09:31:05;;;;;;;;;;;;;;;27.04;100.00;100750.75;5326648;27;19939;-79
2022/09/08 09:33:55;;;;;;;;;;;;;;;27.51;100.00;100755.72;5326454;27;19979;-80
2022/09/08 09:36:26;;;;;;;;;;;;;;;27.90;100.00;100763.75;5324042;27;19948;-79
2022/09/08 09:39:16;;;;;;;;;;;;;;;27.45;100.00;100762.19;5314410;27;20408;-79
2022/09/08 09:41:47;;;;;;;;;;;;;;;28.53;100.00;100754.94;5305401;28;19948;-79
2022/09/08 09:44:21;;;;;;;;;;;;;;;29.06;100.00;100757.72;5305501;28;19952;-79
2022/09/08 09:47:05;;;;;;;;;;;;;;;28.64;100.00;100764.91;5337747;27;20265;-79
2022/09/08 09:49:36;;;;;;;;;;;;;;;29.04;100.00;100754.44;5337893;27;19912;-79
2022/09/08 09:52:13;;;;;;;;;;;;;;;29.57;100.00;100757.91;5342608;27;19966;-80
2022/09/08 09:54:47;;;;;;;;;;;;;;;27.67;100.00;100758.63;5305610;28;20003;-80
2022/09/08 09:57:37;;;;;;;;;;;;;;;26.72;100.00;100756.09;5312412;27;19998;-80
2022/09/08 10:00:12;;;;;;;;;;;;;;;25.78;100.00;100754.78;5329208;27;19968;-80
2022/09/08 10:03:02;;;;;;;;;;;;;;;27.26;100.00;100764.44;5324614;27;20280;-77
2022/09/08 10:05:39;;;;;;;;;;;;;;;27.30;100.00;100760.13;5328874;27;19924;-79
2022/09/08 10:08:28;;;;;;;;;;;;;;;28.01;100.00;100756.47;5325877;27;19912;-78
2022/09/08 10:11:18;;;;;;;;;;;;;;;27.82;100.00;100763.41;5325940;27;20376;-79
2022/09/08 10:14:10;;;;;;;;;;;;;;;29.13;100.00;100766.53;5324721;27;19916;-80
2022/09/08 10:17:00;;;;;;;;;;;;;;;29.09;100.00;100775.59;5325953;27;19912;-80
2022/09/08 10:19:37;;;;;;;;;;;;;;;29.10;100.00;100774.50;5326025;28;19997;-78
2022/09/08 10:22:23;;;;;;;;;;;;;;;28.85;100.00;100771.34;5326369;27;19916;-78
2022/09/08 10:25:13;;;;;;;;;;;;;;;27.75;100.00;100769.09;5318415;27;20332;-78
2022/09/08 10:28:03;;;;;;;;;;;;;;;26.46;100.00;100766.63;5311966;27;20343;-80
2022/09/08 10:30:53;;;;;;;;;;;;;;;26.07;100.00;100772.00;5326191;27;19916;-80
2022/09/08 10:33:40;;;;;;;;;;;;;;;24.59;100.00;100773.34;5324437;28;19961;-79
2022/09/08 10:36:12;;;;;;;;;;;;;;;24.57;100.00;100770.03;5325455;27;20020;-78
2022/09/08 10:38:56;;;;;;;;;;;;;;;26.49;100.00;100759.81;5326015;27;19994;-80
2022/09/08 10:41:45;;;;;;;;;;;;;;;27.42;100.00;100770.09;5325934;27;19912;-79
2022/09/08 10:44:25;;;;;;;;;;;;;;;28.87;99.37;100765.59;5324652;28;19928;-79
2022/09/08 10:46:56;;;;;;;;;;;;;;;30.51;87.57;100765.97;5324100;27;19920;-79
2022/09/08 10:49:37;;;;;;;;;;;;;;;29.53;78.40;100756.81;5312883;27;19931;-79
2022/09/08 10:52:25;;;;;;;;;;;;;;;28.02;97.06;100762.81;5325833;28;19916;-79
2022/09/08 10:54:56;;;;;;;;;;;;;;;25.67;100.00;100751.06;5325224;27;19919;-80
2022/09/08 10:57:31;;;;;;;;;;;;;;;24.14;100.00;100747.47;5325745;27;19916;-80
2022/09/08 11:00:10;;;;;;;;;;;;;;;23.37;100.00;100756.31;5324770;27;20269;-79
2022/09/08 11:02:52;;;;;;;;;;;;;;;23.37;100.00;100755.50;5325357;27;19912;-78
2022/09/08 11:05:24;;;;;;;;;;;;;;;26.51;100.00;100747.53;5325453;27;20429;-79
2022/09/08 11:08:14;;;;;;;;;;;;;;;29.17;100.00;100743.00;5325709;27;19919;-79
2022/09/08 11:11:07;;;;;;;;;;;;;;;28.85;97.26;100746.66;5325205;27;19920;-79
2022/09/08 11:13:45;;;;;;;;;;;;;;;27.56;100.00;100749.47;5324050;27;19916;-79
2022/09/08 11:16:30;;;;;;;;;;;;;;;26.50;100.00;100742.31;5303669;28;20015;-79
2022/09/08 11:19:07;;;;;;;;;;;;;;;28.00;100.00;100743.88;5303696;28;19913;-79
2022/09/08 11:21:47;;;;;;;;;;;;;;;27.73;100.00;100733.75;5304187;28;19924;-79
2022/09/08 11:24:31;;;;;;;;;;;;;;;25.71;100.00;100744.03;5304150;28;20297;-80
2022/09/08 11:27:07;;;;;;;;;;;;;;;24.56;100.00;100743.81;5301693;28;20365;-80
2022/09/08 11:29:39;;;;;;;;;;;;;;;24.06;100.00;100736.09;5303668;28;20419;-80
2022/09/08 11:32:33;;;;;;;;;;;;;;;23.34;100.00;100731.47;5304056;28;19916;-79
2022/09/08 11:35:17;;;;;;;;;;;;;;;23.95;100.00;100729.56;5303684;28;19916;-79
2022/09/08 11:38:00;;;;;;;;;;;;;;;27.41;100.00;100730.13;5324578;27;20422;-80
2022/09/08 11:40:34;;;;;;;;;;;;;;;28.61;99.13;100732.53;5328503;27;19916;-79
2022/09/08 11:43:20;;;;;;;;;;;;;;;28.09;94.98;100728.59;5326169;27;19924;-79
2022/09/08 11:45:51;;;;;;;;;;;;;;;27.35;100.00;100727.34;5327930;27;20368;-79
2022/09/08 11:48:36;;;;;;;;;;;;;;;27.89;100.00;100729.22;5328371;27;19916;-79
2022/09/08 11:51:20;;;;;;;;;;;;;;;30.54;82.97;100728.78;5328207;27;19912;-80
2022/09/08 11:54:12;;;;;;;;;;;;;;;32.58;62.24;100720.31;5306729;27;19913;-80
2022/09/08 11:56:47;;;;;;;;;;;;;;;31.87;69.59;100723.75;5291346;27;19919;-80
2022/09/08 11:59:36;;;;;;;;;;;;;;;33.38;55.76;100717.97;5328277;27;19927;-80
2022/09/08 12:02:41;;;;;;;;;;;;;;;35.00;54.46;100713.75;5326688;28;19920;-80
2022/09/08 12:05:20;;;;;;;;;;;;;;;34.57;47.94;100712.09;5328331;27;19913;-80
2022/09/08 12:07:51;;;;;;;;;;;;;;;34.20;53.90;100705.59;5328119;27;19912;-80
2022/09/08 12:10:41;;;;;;;;;;;;;;;32.29;54.35;100691.94;5327565;27;20537;-79
2022/09/08 12:13:29;;;;;;;;;;;;;;;30.97;70.19;100695.38;5328090;27;19912;-79
2022/09/08 12:16:14;;;;;;;;;;;;;;;29.02;79.34;100691.56;5327862;27;19916;-79
2022/09/08 12:18:52;;;;;;;;;;;;;;;28.16;100.00;100683.69;5328008;27;20293;-79
2022/09/08 12:21:42;;;;;;;;;;;;;;;27.26;92.75;100687.78;5328068;27;19912;-79
2022/09/08 12:24:19;;;;;;;;;;;;;;;26.08;100.00;100686.19;5327885;28;20312;-79
2022/09/08 12:27:10;;;;;;;;;;;;;;;25.51;100.00;100694.50;5327950;27;20400;-79
2022/09/08 12:29:44;;;;;;;;;;;;;;;24.02;100.00;100702.19;5327029;27;19916;-79
2022/09/08 12:32:36;;;;;;;;;;;;;;;23.33;100.00;100697.13;5329798;27;19920;-79
2022/09/08 12:35:17;;;;;;;;;;;;;;;22.78;100.00;100700.75;5328006;27;19920;-79
2022/09/08 12:37:48;;;;;;;;;;;;;;;22.64;100.00;100697.34;5327865;27;20002;-79
2022/09/08 12:40:30;;;;;;;;;;;;;;;23.49;100.00;100698.38;5327971;27;20018;-79
2022/09/08 12:43:08;;;;;;;;;;;;;;;25.84;100.00;100690.97;5327098;27;19964;-79
2022/09/08 12:45:39;;;;;;;;;;;;;;;28.47;100.00;100692.91;5325720;28;20391;-79
2022/09/08 12:48:22;;;;;;;;;;;;;;;28.21;87.63;100676.31;5327270;27;19924;-79
2022/09/08 12:51:12;;;;;;;;;;;;;;;27.79;90.25;100695.41;5327737;27;19919;-80
2022/09/08 12:53:43;;;;;;;;;;;;;;;28.84;75.53;100686.56;5325926;27;19919;-80
2022/09/08 12:56:39;;;;;;;;;;;;;;;29.90;68.15;100684.31;5327110;27;20423;-79
2022/09/08 12:59:24;;;;;;;;;;;;;;;30.19;62.77;100691.16;5327109;27;19955;-79
2022/09/08 13:02:02;;;;;;;;;;;;;;;31.06;63.20;100683.47;5327342;27;19912;-79
2022/09/08 13:04:51;;;;;;;;;;;;;;;29.44;58.17;100686.19;5327469;27;19916;-80
2022/09/08 13:07:23;;;;;;;;;;;;;;;28.93;66.41;100695.09;5325979;28;19963;-80
2022/09/08 13:10:02;;;;;;;;;;;;;;;28.94;75.11;100703.03;5327817;27;19986;-79
2022/09/08 13:12:49;;;;;;;;;;;;;;;29.29;67.19;100689.72;5327025;27;20005;-80
2022/09/08 13:15:29;;;;;;;;;;;;;;;30.98;56.55;100680.50;5313158;27;19919;-79
2022/09/08 13:18:00;;;;;;;;;;;;;;;31.73;55.23;100683.03;5306182;28;20241;-79
2022/09/08 13:20:37;;;;;;;;;;;;;;;31.17;52.61;100680.66;5305795;28;19965;-79